Split Rock, Wisconsin
Current Conditions -  °F | °C
As of 1:35 AM on Wednesday 26 Nov 2014 (Local Time) from KCLI Reporting Station
Haze Haze  
Wind Chill:   Ceiling: NA
Heat Index:   Visibility: 5mi
Dew Point:   Wind: 0mph
Humidity: 85%   Direction: NA
Pressure: 30.16"   Gusts: NA
Location:  44.7254°N, 89.0642°W
Report Text: KCLI 260735Z AUTO 00000KT 5SM BR M13/M15 A3016 RMK AO2
Loading
Personal Weather Stations






























Interactive Weather Map New forecast layout! Learn more

10-Day Weather Forecast

Advertisements
Track Severe Weather on mobile